Time;durP1;ratioP1;P1;durP2;ratioP2;P2;SDS_P1;SDS_P2;PMS_P1;PMS_P2;Temp;Humidity;BMP_temperature;BMP_pressure;BME280_temperature;BME280_humidity;BME280_pressure;Samples;Min_cycle;Max_cycle;Signal;HPM_P1;HPM_P2
2023/09/09 00:01:38;;;;;;;;;;;;;;;20.78;88.22;101494.91;5029062;28;1199;-75
2023/09/09 00:04:04;;;;;;;;;;;;;;;20.78;88.60;101500.19;5030114;28;1153;-75
2023/09/09 00:06:29;;;;;;;;;;;;;;;20.81;88.73;101499.81;5031090;28;947;-75
2023/09/09 00:08:54;;;;;;;;;;;;;;;20.83;88.61;101503.09;5032163;28;1906;-75
2023/09/09 00:11:20;;;;;;;;;;;;;;;20.84;88.98;101499.47;5025603;28;1134;-75
2023/09/09 00:13:48;;;;;;;;;;;;;;;20.82;88.78;101504.13;5026538;28;1517;-75
2023/09/09 00:16:14;;;;;;;;;;;;;;;20.78;88.91;101505.44;5025853;28;1472;-75
2023/09/09 00:18:39;;;;;;;;;;;;;;;20.73;89.12;101513.06;5028203;28;1097;-75
2023/09/09 00:21:05;;;;;;;;;;;;;;;20.74;89.10;101506.78;5037274;28;1096;-75
2023/09/09 00:23:30;;;;;;;;;;;;;;;20.76;88.88;101513.53;5022682;28;1132;-75
2023/09/09 00:25:55;;;;;;;;;;;;;;;20.77;88.95;101509.09;5042296;28;2241;-76
2023/09/09 00:28:21;;;;;;;;;;;;;;;20.74;89.04;101509.44;5050069;28;1902;-75
2023/09/09 00:30:46;;;;;;;;;;;;;;;20.69;88.99;101505.50;5031376;28;1360;-75
2023/09/09 00:33:12;;;;;;;;;;;;;;;20.68;89.18;101506.50;5031171;28;1074;-75
2023/09/09 00:35:40;;;;;;;;;;;;;;;20.66;89.32;101505.84;5033906;28;1134;-75
2023/09/09 00:38:06;;;;;;;;;;;;;;;20.58;89.35;101500.63;5031424;28;1409;-76
2023/09/09 00:40:32;;;;;;;;;;;;;;;20.53;89.50;101500.34;5034422;28;1016;-75
2023/09/09 00:42:57;;;;;;;;;;;;;;;20.48;89.70;101494.78;5031116;28;1183;-77
2023/09/09 00:45:23;;;;;;;;;;;;;;;20.44;89.82;101498.72;5031967;28;1075;-76
2023/09/09 00:47:48;;;;;;;;;;;;;;;20.38;89.60;101494.13;5034088;28;1621;-75
2023/09/09 00:50:13;;;;;;;;;;;;;;;20.35;89.94;101499.72;5029071;28;1902;-75
2023/09/09 00:52:39;;;;;;;;;;;;;;;20.33;89.99;101496.47;5033441;28;1063;-75
2023/09/09 00:55:09;;;;;;;;;;;;;;;20.27;89.95;101505.06;5034908;28;1085;-76
2023/09/09 00:57:35;;;;;;;;;;;;;;;20.21;90.05;101497.84;5039641;28;1239;-76
2023/09/09 01:00:03;;;;;;;;;;;;;;;20.15;90.41;101494.91;5031315;28;1017;-75
2023/09/09 01:02:29;;;;;;;;;;;;;;;20.13;90.30;101496.91;5034878;28;1261;-75
2023/09/09 01:04:54;;;;;;;;;;;;;;;20.11;90.67;101498.84;5033038;28;1259;-76
2023/09/09 01:07:19;;;;;;;;;;;;;;;20.08;90.76;101499.22;5032292;28;1322;-75
2023/09/09 01:09:45;;;;;;;;;;;;;;;20.05;90.98;101506.63;5028478;28;1965;-75
2023/09/09 01:12:11;;;;;;;;;;;;;;;20.02;91.16;101507.81;5029972;28;1342;-76
2023/09/09 01:14:39;;;;;;;;;;;;;;;19.99;91.32;101505.50;5027465;28;1197;-74
2023/09/09 01:17:05;;;;;;;;;;;;;;;19.97;91.27;101507.50;5029246;28;1435;-75
2023/09/09 01:19:31;;;;;;;;;;;;;;;19.95;91.48;101498.91;5055967;28;1303;-74
2023/09/09 01:22:02;;;;;;;;;;;;;;;19.96;91.59;101499.75;5026278;28;1164;-75
2023/09/09 01:24:28;;;;;;;;;;;;;;;19.93;91.69;101500.91;5032565;28;1543;-75
2023/09/09 01:26:53;;;;;;;;;;;;;;;19.91;91.89;101497.63;5042506;28;1224;-75
2023/09/09 01:29:18;;;;;;;;;;;;;;;19.88;91.96;101492.69;5032362;28;1894;-75
2023/09/09 01:31:43;;;;;;;;;;;;;;;19.87;92.30;101496.31;5042286;28;1440;-75
2023/09/09 01:34:08;;;;;;;;;;;;;;;19.83;92.41;101489.75;5036977;28;1040;-76
2023/09/09 01:36:34;;;;;;;;;;;;;;;19.82;92.43;101488.13;5038924;28;1314;-75
2023/09/09 01:38:59;;;;;;;;;;;;;;;19.80;92.55;101484.84;5042510;28;1263;-75
2023/09/09 01:41:24;;;;;;;;;;;;;;;19.78;92.82;101487.63;5040834;28;1167;-75
2023/09/09 01:43:49;;;;;;;;;;;;;;;19.76;93.01;101488.78;5037076;28;1146;-74
2023/09/09 01:46:15;;;;;;;;;;;;;;;19.74;93.03;101496.88;5039543;28;1251;-75
2023/09/09 01:48:40;;;;;;;;;;;;;;;19.74;93.01;101490.78;5035332;28;1902;-75
2023/09/09 01:51:06;;;;;;;;;;;;;;;19.72;93.16;101490.94;5043763;28;1380;-75
2023/09/09 01:53:31;;;;;;;;;;;;;;;19.69;93.11;101487.84;5036539;28;1039;-75
2023/09/09 01:55:58;;;;;;;;;;;;;;;19.66;93.49;101488.16;5038431;28;1145;-76
2023/09/09 01:58:23;;;;;;;;;;;;;;;19.64;93.59;101493.59;5032572;28;1278;-75
2023/09/09 02:00:48;;;;;;;;;;;;;;;19.65;93.75;101486.50;5038339;28;1364;-75
2023/09/09 02:03:14;;;;;;;;;;;;;;;19.63;93.60;101476.97;5037755;28;1291;-75
2023/09/09 02:05:39;;;;;;;;;;;;;;;19.62;93.68;101488.50;5034539;28;1306;-74
2023/09/09 02:08:04;;;;;;;;;;;;;;;19.60;93.80;101484.38;5033867;28;1276;-75
2023/09/09 02:10:30;;;;;;;;;;;;;;;19.57;94.07;101496.03;5035705;28;1949;-75
2023/09/09 02:12:55;;;;;;;;;;;;;;;19.56;93.94;101499.66;5033682;28;954;-75
2023/09/09 02:15:20;;;;;;;;;;;;;;;19.55;94.11;101487.47;5037021;28;1303;-75
2023/09/09 02:17:46;;;;;;;;;;;;;;;19.52;94.25;101492.28;5024421;28;1282;-75
2023/09/09 02:20:11;;;;;;;;;;;;;;;19.48;94.41;101481.25;5031090;28;1147;-75
2023/09/09 02:22:36;;;;;;;;;;;;;;;19.43;94.44;101486.19;5031267;28;1219;-76
2023/09/09 02:25:03;;;;;;;;;;;;;;;19.40;94.70;101489.16;5027338;28;1106;-75
2023/09/09 02:27:28;;;;;;;;;;;;;;;19.39;94.58;101489.34;5027540;28;1130;-75
2023/09/09 02:29:54;;;;;;;;;;;;;;;19.37;94.79;101484.22;5026403;28;1945;-74
2023/09/09 02:32:19;;;;;;;;;;;;;;;19.33;94.76;101482.94;5032035;28;1304;-75
2023/09/09 02:34:44;;;;;;;;;;;;;;;19.27;94.67;101483.59;5038994;28;1176;-75
2023/09/09 02:37:11;;;;;;;;;;;;;;;19.23;94.83;101487.53;5034302;28;1198;-75
2023/09/09 02:39:36;;;;;;;;;;;;;;;19.18;94.86;101485.41;5042510;28;2166;-75
2023/09/09 02:42:01;;;;;;;;;;;;;;;19.15;95.32;101484.91;5040911;28;1110;-74
2023/09/09 02:44:27;;;;;;;;;;;;;;;19.15;95.12;101479.66;5029795;28;1293;-76
2023/09/09 02:46:52;;;;;;;;;;;;;;;19.17;95.40;101475.88;5039948;28;1291;-74
2023/09/09 02:49:17;;;;;;;;;;;;;;;19.18;95.34;101474.06;5032279;28;1889;-74
2023/09/09 02:51:42;;;;;;;;;;;;;;;19.21;95.57;101478.97;5033337;28;1170;-74
2023/09/09 02:54:07;;;;;;;;;;;;;;;19.23;95.78;101482.28;5036567;28;1106;-74
2023/09/09 02:56:33;;;;;;;;;;;;;;;19.23;95.83;101482.28;5033914;28;1220;-75
2023/09/09 02:58:58;;;;;;;;;;;;;;;19.22;95.84;101480.66;5037029;28;1408;-74
2023/09/09 03:01:24;;;;;;;;;;;;;;;19.20;95.72;101480.78;5031130;28;1251;-74
2023/09/09 03:03:49;;;;;;;;;;;;;;;19.18;95.88;101484.59;5033231;28;1319;-74
2023/09/09 03:06:14;;;;;;;;;;;;;;;19.14;96.00;101486.72;5032485;28;1543;-75
2023/09/09 03:08:39;;;;;;;;;;;;;;;19.11;96.14;101484.44;5039556;28;1971;-75
2023/09/09 03:11:05;;;;;;;;;;;;;;;19.10;96.20;101483.63;5029446;28;1231;-75
2023/09/09 03:13:30;;;;;;;;;;;;;;;19.08;96.39;101480.31;5033701;28;1222;-75
2023/09/09 03:15:55;;;;;;;;;;;;;;;19.06;96.34;101484.91;5034670;28;1028;-76
2023/09/09 03:18:20;;;;;;;;;;;;;;;19.06;96.54;101487.56;5034544;28;1293;-78
2023/09/09 03:20:45;;;;;;;;;;;;;;;19.04;96.47;101481.66;5033312;28;1265;-74
2023/09/09 03:23:11;;;;;;;;;;;;;;;19.02;96.42;101490.66;5031175;28;1256;-75
2023/09/09 03:25:36;;;;;;;;;;;;;;;19.00;96.37;101488.22;5065104;28;1512;-75
2023/09/09 03:28:02;;;;;;;;;;;;;;;18.96;96.34;101486.88;5030178;28;1321;-75
2023/09/09 03:30:28;;;;;;;;;;;;;;;18.92;96.27;101485.56;5029372;28;1898;-75
2023/09/09 03:32:53;;;;;;;;;;;;;;;18.89;96.24;101485.91;5030631;28;1300;-75
2023/09/09 03:35:18;;;;;;;;;;;;;;;18.86;96.30;101483.59;5031575;28;1553;-75
2023/09/09 03:37:43;;;;;;;;;;;;;;;18.81;96.69;101485.91;5025731;28;1211;-74
2023/09/09 03:40:09;;;;;;;;;;;;;;;18.76;96.43;101490.81;5044652;28;1097;-75
2023/09/09 03:42:34;;;;;;;;;;;;;;;18.73;96.69;101485.88;5043913;28;1578;-75
2023/09/09 03:44:59;;;;;;;;;;;;;;;18.71;96.93;101487.84;5036077;28;1244;-75
2023/09/09 03:47:25;;;;;;;;;;;;;;;18.75;96.89;101479.50;5035724;28;2239;-75
2023/09/09 03:49:52;;;;;;;;;;;;;;;18.79;97.16;101482.59;5037513;28;1952;-76
2023/09/09 03:52:18;;;;;;;;;;;;;;;18.78;96.95;101483.59;5038262;28;1147;-75
2023/09/09 03:54:43;;;;;;;;;;;;;;;18.77;96.97;101482.78;5027793;28;1321;-75
2023/09/09 03:57:08;;;;;;;;;;;;;;;18.76;97.13;101485.56;5029879;28;1157;-75
2023/09/09 03:59:33;;;;;;;;;;;;;;;18.73;97.16;101483.25;5033964;28;1064;-75
2023/09/09 04:01:58;;;;;;;;;;;;;;;18.69;97.14;101484.56;5033832;28;1423;-75
2023/09/09 04:04:24;;;;;;;;;;;;;;;18.66;97.25;101487.50;5032646;28;1468;-75
2023/09/09 04:06:49;;;;;;;;;;;;;;;18.61;97.19;101487.16;5027728;28;1159;-75
2023/09/09 04:09:22;;;;;;;;;;;;;;;18.57;97.45;101492.72;5034862;28;1893;-76
2023/09/09 04:11:47;;;;;;;;;;;;;;;18.53;97.56;101490.59;5039725;28;1167;-75
2023/09/09 04:14:12;;;;;;;;;;;;;;;18.52;97.58;101484.50;5027324;28;1286;-75
2023/09/09 04:16:37;;;;;;;;;;;;;;;18.46;97.59;101490.38;5036447;28;1306;-76
2023/09/09 04:19:03;;;;;;;;;;;;;;;18.45;97.80;101483.50;5031819;28;1092;-76
2023/09/09 04:21:29;;;;;;;;;;;;;;;18.45;97.80;101494.00;5032525;28;1282;-77
2023/09/09 04:23:54;;;;;;;;;;;;;;;18.44;97.90;101491.53;5030326;28;1072;-74
2023/09/09 04:26:19;;;;;;;;;;;;;;;18.35;97.97;101493.34;5030585;28;1176;-76
2023/09/09 04:28:44;;;;;;;;;;;;;;;18.31;98.23;101492.00;5032245;28;1940;-75
2023/09/09 04:31:10;;;;;;;;;;;;;;;18.24;97.98;101491.00;5029401;28;1271;-75
2023/09/09 04:33:35;;;;;;;;;;;;;;;18.25;97.93;101492.63;5026918;28;1103;-75
2023/09/09 04:36:00;;;;;;;;;;;;;;;18.21;98.29;101491.31;5027600;28;1300;-75
2023/09/09 04:38:25;;;;;;;;;;;;;;;18.16;98.23;101488.31;5023471;28;1090;-75
2023/09/09 04:40:50;;;;;;;;;;;;;;;18.13;98.42;101496.53;5027210;28;992;-75
2023/09/09 04:43:17;;;;;;;;;;;;;;;18.11;98.48;101501.91;5027555;28;1064;-73
2023/09/09 04:45:43;;;;;;;;;;;;;;;18.09;98.53;101497.81;5026487;28;1117;-76
2023/09/09 04:48:10;;;;;;;;;;;;;;;18.05;98.34;101492.88;5041027;28;1275;-75
2023/09/09 04:50:35;;;;;;;;;;;;;;;18.00;98.57;101505.66;5036635;28;1955;-75
2023/09/09 04:53:02;;;;;;;;;;;;;;;17.97;98.51;101498.09;5025845;28;1167;-75
2023/09/09 04:55:27;;;;;;;;;;;;;;;17.93;98.53;101499.38;5031353;28;1224;-75
2023/09/09 04:57:52;;;;;;;;;;;;;;;17.90;98.68;101504.97;5029548;28;1363;-75
2023/09/09 05:00:18;;;;;;;;;;;;;;;17.86;98.45;101506.25;5037030;28;1497;-76
2023/09/09 05:02:43;;;;;;;;;;;;;;;17.83;98.64;101508.34;5029930;28;1226;-74
2023/09/09 05:05:08;;;;;;;;;;;;;;;17.80;98.89;101509.50;5042225;28;1446;-75
2023/09/09 05:07:34;;;;;;;;;;;;;;;17.78;98.88;101498.34;5036931;28;1076;-75
2023/09/09 05:10:00;;;;;;;;;;;;;;;17.77;98.94;101509.78;5041568;28;1898;-75
2023/09/09 05:12:25;;;;;;;;;;;;;;;17.76;99.05;101513.41;5035841;28;1316;-75
2023/09/09 05:14:50;;;;;;;;;;;;;;;17.76;99.01;101502.91;5036674;28;1746;-75
2023/09/09 05:17:15;;;;;;;;;;;;;;;17.72;99.01;101506.81;5033703;28;1526;-75
2023/09/09 05:19:40;;;;;;;;;;;;;;;17.69;98.96;101513.16;5038034;28;1161;-75
2023/09/09 05:22:06;;;;;;;;;;;;;;;17.68;99.36;101508.09;5031858;28;1336;-75
2023/09/09 05:24:31;;;;;;;;;;;;;;;17.69;99.35;101517.59;5036788;28;1237;-75
2023/09/09 05:26:56;;;;;;;;;;;;;;;17.66;99.46;101516.13;5032076;28;1372;-75
2023/09/09 05:29:21;;;;;;;;;;;;;;;17.66;99.68;101523.97;5064108;28;1898;-75
2023/09/09 05:31:46;;;;;;;;;;;;;;;17.67;99.75;101519.56;5029577;28;1423;-75
2023/09/09 05:34:12;;;;;;;;;;;;;;;17.64;100.00;101525.09;5033385;28;1316;-74
2023/09/09 05:36:37;;;;;;;;;;;;;;;17.65;100.00;101517.06;5030680;28;1025;-74
2023/09/09 05:39:04;;;;;;;;;;;;;;;17.64;100.00;101519.84;5032365;28;1105;-75
2023/09/09 05:41:29;;;;;;;;;;;;;;;17.63;100.00;101526.09;5033279;28;1153;-74
2023/09/09 05:43:54;;;;;;;;;;;;;;;17.62;100.00;101521.81;5037562;28;1332;-75
2023/09/09 05:46:23;;;;;;;;;;;;;;;17.59;100.00;101527.34;5032862;28;1152;-75
2023/09/09 05:48:48;;;;;;;;;;;;;;;17.60;100.00;101529.00;5030856;28;1977;-75
2023/09/09 05:51:13;;;;;;;;;;;;;;;17.60;100.00;101529.81;5031296;28;1322;-75
2023/09/09 05:53:39;;;;;;;;;;;;;;;17.56;100.00;101527.69;5028993;28;1207;-75
2023/09/09 05:56:05;;;;;;;;;;;;;;;17.56;100.00;101532.94;5029216;28;1361;-75
2023/09/09 05:58:30;;;;;;;;;;;;;;;17.60;100.00;101539.50;5036068;28;1052;-75
2023/09/09 06:00:55;;;;;;;;;;;;;;;17.62;100.00;101534.94;5030108;28;1372;-75
2023/09/09 06:03:20;;;;;;;;;;;;;;;17.63;100.00;101533.94;5034663;28;1235;-75
2023/09/09 06:05:46;;;;;;;;;;;;;;;17.64;100.00;101540.84;5029327;28;1577;-75
2023/09/09 06:08:12;;;;;;;;;;;;;;;17.67;100.00;101545.78;5034857;28;1255;-74
2023/09/09 06:10:37;;;;;;;;;;;;;;;17.67;100.00;101545.78;5027592;28;1894;-75
2023/09/09 06:13:02;;;;;;;;;;;;;;;17.64;100.00;101551.34;5036158;28;1486;-74
2023/09/09 06:15:28;;;;;;;;;;;;;;;17.65;100.00;101558.22;5035606;28;1211;-74
2023/09/09 06:17:53;;;;;;;;;;;;;;;17.66;100.00;101550.22;5034945;28;1061;-74
2023/09/09 06:20:18;;;;;;;;;;;;;;;17.72;100.00;101543.53;5029098;28;1163;-73
2023/09/09 06:22:44;;;;;;;;;;;;;;;17.67;100.00;101558.91;5036051;28;1195;-75
2023/09/09 06:25:09;;;;;;;;;;;;;;;17.64;100.00;101556.59;5033238;28;1228;-74
2023/09/09 06:27:34;;;;;;;;;;;;;;;17.66;100.00;101555.47;5037960;28;1052;-75
2023/09/09 06:30:00;;;;;;;;;;;;;;;17.63;100.00;101560.19;5036832;28;1937;-75
2023/09/09 06:32:25;;;;;;;;;;;;;;;17.62;100.00;101558.53;5025578;28;1174;-75
2023/09/09 06:34:51;;;;;;;;;;;;;;;17.63;100.00;101560.19;5033599;28;1111;-73
2023/09/09 06:37:16;;;;;;;;;;;;;;;17.68;100.00;101568.44;5034562;28;1146;-74
2023/09/09 06:39:41;;;;;;;;;;;;;;;17.72;100.00;101565.38;5032457;28;1102;-74
2023/09/09 06:42:06;;;;;;;;;;;;;;;17.75;100.00;101569.47;5029913;28;1203;-74
2023/09/09 06:44:32;;;;;;;;;;;;;;;17.74;100.00;101570.47;5021331;28;1041;-74
2023/09/09 06:46:57;;;;;;;;;;;;;;;17.73;100.00;101566.19;5029615;28;1117;-75
2023/09/09 06:49:22;;;;;;;;;;;;;;;17.70;100.00;101574.34;5030916;28;1902;-74
2023/09/09 06:51:48;;;;;;;;;;;;;;;17.72;100.00;101580.28;5027323;28;1053;-75
2023/09/09 06:54:13;;;;;;;;;;;;;;;17.74;100.00;101580.97;5030780;28;1157;-74
2023/09/09 06:56:38;;;;;;;;;;;;;;;17.75;100.00;101579.97;5027498;28;1183;-75
2023/09/09 06:59:03;;;;;;;;;;;;;;;17.76;100.00;101581.63;5029293;28;1573;-73
2023/09/09 07:01:29;;;;;;;;;;;;;;;17.80;100.00;101582.97;5036655;28;1137;-75
2023/09/09 07:03:54;;;;;;;;;;;;;;;17.81;100.00;101579.34;5029261;28;1524;-75
2023/09/09 07:06:19;;;;;;;;;;;;;;;17.73;100.00;101582.75;5033174;28;1271;-76
2023/09/09 07:08:47;;;;;;;;;;;;;;;17.69;100.00;101573.50;5033391;28;1914;-76
2023/09/09 07:11:12;;;;;;;;;;;;;;;17.63;100.00;101581.16;5032483;28;1274;-74
2023/09/09 07:13:37;;;;;;;;;;;;;;;17.55;100.00;101586.34;5031061;28;1438;-75
2023/09/09 07:16:02;;;;;;;;;;;;;;;17.47;100.00;101582.69;5037661;28;1147;-76
2023/09/09 07:18:28;;;;;;;;;;;;;;;17.51;100.00;101589.28;5029953;28;1182;-74
2023/09/09 07:20:55;;;;;;;;;;;;;;;17.61;100.00;101593.63;5027795;28;1283;-75
2023/09/09 07:23:21;;;;;;;;;;;;;;;17.64;100.00;101593.31;5031027;28;1314;-75
2023/09/09 07:25:47;;;;;;;;;;;;;;;17.69;100.00;101591.06;5033665;28;1341;-74
2023/09/09 07:28:12;;;;;;;;;;;;;;;17.82;100.00;101602.00;5030073;28;1434;-73
2023/09/09 07:30:38;;;;;;;;;;;;;;;17.86;100.00;101603.34;5035841;28;1934;-74
2023/09/09 07:33:03;;;;;;;;;;;;;;;17.83;100.00;101598.38;5027799;28;1313;-76
2023/09/09 07:35:29;;;;;;;;;;;;;;;17.85;100.00;101612.19;5030857;28;1207;-74
2023/09/09 07:37:54;;;;;;;;;;;;;;;17.90;100.00;101609.13;5034511;28;1239;-75
2023/09/09 07:40:19;;;;;;;;;;;;;;;17.98;100.00;101612.59;5033716;28;1354;-76
2023/09/09 07:42:45;;;;;;;;;;;;;;;18.04;100.00;101600.66;5035807;28;1160;-75
2023/09/09 07:45:10;;;;;;;;;;;;;;;18.12;100.00;101607.75;5029760;28;1317;-75
2023/09/09 07:47:35;;;;;;;;;;;;;;;18.19;100.00;101609.63;5033164;28;1189;-75
2023/09/09 07:50:00;;;;;;;;;;;;;;;18.23;100.00;101615.38;5034807;28;1894;-75
2023/09/09 07:52:26;;;;;;;;;;;;;;;18.28;100.00;101613.94;5030448;28;1269;-75
2023/09/09 07:54:51;;;;;;;;;;;;;;;18.37;100.00;101617.44;5028374;28;998;-76
2023/09/09 07:57:17;;;;;;;;;;;;;;;18.42;100.00;101620.41;5028640;28;1145;-76
2023/09/09 07:59:42;;;;;;;;;;;;;;;18.45;100.00;101614.81;5025591;28;1196;-75
2023/09/09 08:02:07;;;;;;;;;;;;;;;18.46;100.00;101616.47;5029291;28;1351;-75
2023/09/09 08:04:32;;;;;;;;;;;;;;;18.51;100.00;101622.06;5025258;28;1285;-75
2023/09/09 08:06:58;;;;;;;;;;;;;;;18.58;100.00;101625.75;5033117;28;1116;-75
2023/09/09 08:09:23;;;;;;;;;;;;;;;18.60;100.00;101622.13;5029591;28;1894;-75
2023/09/09 08:11:48;;;;;;;;;;;;;;;18.63;100.00;101629.69;5042592;28;1291;-75
2023/09/09 08:14:13;;;;;;;;;;;;;;;18.72;100.00;101631.41;5040952;28;1680;-75
2023/09/09 08:16:39;;;;;;;;;;;;;;;18.79;100.00;101627.97;5031795;28;1297;-74
2023/09/09 08:19:04;;;;;;;;;;;;;;;18.87;100.00;101627.19;5034530;28;1321;-74
2023/09/09 08:21:29;;;;;;;;;;;;;;;18.89;100.00;101638.34;5034475;28;1259;-75
2023/09/09 08:23:59;;;;;;;;;;;;;;;18.82;100.00;101637.34;5036062;28;1584;-75
2023/09/09 08:26:25;;;;;;;;;;;;;;;18.87;100.00;101639.47;5033139;28;1247;-75
2023/09/09 08:28:50;;;;;;;;;;;;;;;18.90;100.00;101640.00;5036814;28;1894;-75
2023/09/09 08:31:15;;;;;;;;;;;;;;;18.98;100.00;101639.19;5035547;28;1175;-76
2023/09/09 08:33:41;;;;;;;;;;;;;;;19.06;100.00;101640.03;5037121;28;1263;-76
2023/09/09 08:36:06;;;;;;;;;;;;;;;19.12;100.00;101643.84;5035947;28;1104;-75
2023/09/09 08:38:31;;;;;;;;;;;;;;;19.19;100.00;101638.75;5032362;28;1395;-75
2023/09/09 08:41:03;;;;;;;;;;;;;;;19.20;100.00;101646.47;5037426;28;1113;-75
2023/09/09 08:43:47;;;;;;;;;;;;;;;19.23;100.00;101640.09;5029232;28;2085;-75
2023/09/09 08:46:19;;;;;;;;;;;;;;;19.33;100.00;101648.66;5024285;28;990;-75
2023/09/09 08:48:44;;;;;;;;;;;;;;;19.33;100.00;101646.03;5029783;28;1961;-75
2023/09/09 08:51:12;;;;;;;;;;;;;;;19.43;100.00;101651.94;5029761;28;928;-76
2023/09/09 08:53:39;;;;;;;;;;;;;;;19.52;100.00;101650.16;5028977;28;1391;-75
2023/09/09 08:56:04;;;;;;;;;;;;;;;19.61;100.00;101651.81;5028535;28;1102;-75
2023/09/09 08:58:29;;;;;;;;;;;;;;;19.71;100.00;101654.28;5031275;28;1076;-75
2023/09/09 09:00:55;;;;;;;;;;;;;;;19.81;100.00;101654.94;5027600;28;1017;-75
2023/09/09 09:03:20;;;;;;;;;;;;;;;19.87;100.00;101654.28;5027199;28;1291;-75
2023/09/09 09:05:46;;;;;;;;;;;;;;;19.91;100.00;101655.59;5019891;28;1112;-75
2023/09/09 09:08:11;;;;;;;;;;;;;;;19.96;100.00;101669.09;5027461;28;1040;-75
2023/09/09 09:10:37;;;;;;;;;;;;;;;20.05;100.00;101662.81;5028170;28;1894;-73
2023/09/09 09:13:02;;;;;;;;;;;;;;;20.09;100.00;101664.13;5028793;28;1301;-74
2023/09/09 09:15:31;;;;;;;;;;;;;;;20.10;100.00;101665.78;5026702;28;1104;-74
2023/09/09 09:17:56;;;;;;;;;;;;;;;20.24;100.00;101666.88;5029952;28;1079;-75
2023/09/09 09:20:29;;;;;;;;;;;;;;;20.35;100.00;101668.34;5029635;28;1084;-75
2023/09/09 09:22:59;;;;;;;;;;;;;;;20.47;100.00;101667.03;5026010;28;1342;-75
2023/09/09 09:25:24;;;;;;;;;;;;;;;20.56;100.00;101666.03;5028719;28;1306;-75
2023/09/09 09:27:49;;;;;;;;;;;;;;;20.62;100.00;101667.97;5033143;28;1335;-74
2023/09/09 09:30:21;;;;;;;;;;;;;;;20.66;100.00;101666.66;5030435;28;1985;-75
2023/09/09 09:32:50;;;;;;;;;;;;;;;20.69;100.00;101661.03;5029621;28;1114;-76
2023/09/09 09:35:25;;;;;;;;;;;;;;;20.74;100.00;101662.34;5035154;28;1627;-75
2023/09/09 09:37:55;;;;;;;;;;;;;;;20.78;100.00;101663.63;5028383;28;1270;-75
2023/09/09 09:40:21;;;;;;;;;;;;;;;20.74;100.00;101667.59;5033368;28;1318;-75
2023/09/09 09:42:46;;;;;;;;;;;;;;;20.79;100.00;101665.28;5031439;28;1382;-75
2023/09/09 09:45:12;;;;;;;;;;;;;;;20.90;100.00;101662.25;5028651;28;1678;-75
2023/09/09 09:47:41;;;;;;;;;;;;;;;21.04;100.00;101664.16;5033118;28;1350;-75
2023/09/09 09:50:06;;;;;;;;;;;;;;;21.13;100.00;101663.13;5030420;28;1954;-75
2023/09/09 09:52:32;;;;;;;;;;;;;;;21.29;100.00;101664.03;5031364;28;1291;-75
2023/09/09 09:54:57;;;;;;;;;;;;;;;21.41;100.00;101660.00;5028859;28;1408;-75
2023/09/09 09:57:22;;;;;;;;;;;;;;;21.51;100.00;101665.88;5041263;28;1283;-75
2023/09/09 09:59:47;;;;;;;;;;;;;;;21.62;100.00;101667.25;5026340;28;1263;-76
2023/09/09 10:02:14;;;;;;;;;;;;;;;21.79;100.00;101662.66;5063694;28;1235;-75
2023/09/09 10:04:42;;;;;;;;;;;;;;;21.95;100.00;101667.81;5031036;28;1333;-75
2023/09/09 10:07:12;;;;;;;;;;;;;;;22.06;100.00;101664.72;5031641;28;984;-75
2023/09/09 10:09:43;;;;;;;;;;;;;;;22.22;100.00;101661.97;5021979;28;1895;-75
2023/09/09 10:12:30;;;;;;;;;;;;;;;22.40;100.00;101666.06;5024238;28;1288;-76
2023/09/09 10:14:56;;;;;;;;;;;;;;;22.65;98.46;101664.78;5027879;28;1083;-75
2023/09/09 10:17:21;;;;;;;;;;;;;;;22.72;97.26;101660.41;5027084;28;1098;-75
2023/09/09 10:19:49;;;;;;;;;;;;;;;22.84;97.91;101662.56;5031029;28;1542;-75
2023/09/09 10:22:14;;;;;;;;;;;;;;;22.97;97.75;101660.09;5033163;28;1368;-76
2023/09/09 10:24:40;;;;;;;;;;;;;;;23.11;97.21;101653.97;5033274;28;1220;-75
2023/09/09 10:27:06;;;;;;;;;;;;;;;23.25;96.36;101658.38;5041447;28;1327;-75
2023/09/09 10:29:31;;;;;;;;;;;;;;;23.36;95.28;101657.06;5038502;28;1894;-75
2023/09/09 10:32:04;;;;;;;;;;;;;;;23.45;94.53;101660.38;5035501;28;1247;-75
2023/09/09 10:34:30;;;;;;;;;;;;;;;23.47;93.36;101653.06;5028665;28;1483;-75
2023/09/09 10:36:58;;;;;;;;;;;;;;;23.49;90.63;101651.06;5036695;28;963;-75
2023/09/09 10:39:24;;;;;;;;;;;;;;;23.52;87.82;101661.28;5042108;28;1170;-75
2023/09/09 10:41:50;;;;;;;;;;;;;;;23.61;90.73;101649.53;5038662;28;1130;-75
2023/09/09 10:44:15;;;;;;;;;;;;;;;23.64;89.54;101646.53;5035357;28;1649;-75
2023/09/09 10:46:41;;;;;;;;;;;;;;;23.80;89.67;101643.63;5031563;28;1560;-75
2023/09/09 10:49:07;;;;;;;;;;;;;;;23.86;87.64;101652.63;5039011;28;1926;-76
2023/09/09 10:51:51;;;;;;;;;;;;;;;23.94;80.75;101659.59;5028308;28;1330;-75
2023/09/09 10:54:22;;;;;;;;;;;;;;;23.95;84.52;101655.94;5031902;28;1249;-74
2023/09/09 10:56:49;;;;;;;;;;;;;;;23.95;83.98;101655.94;5029906;28;982;-75
2023/09/09 10:59:34;;;;;;;;;;;;;;;24.08;82.91;101662.13;5034313;28;1147;-75
2023/09/09 11:02:10;;;;;;;;;;;;;;;24.30;84.35;101664.72;5025812;28;1174;-75
2023/09/09 11:04:36;;;;;;;;;;;;;;;24.48;81.53;101662.38;5028033;28;1650;-73
2023/09/09 11:07:07;;;;;;;;;;;;;;;24.54;80.00;101660.78;5031898;28;1297;-74
2023/09/09 11:09:32;;;;;;;;;;;;;;;24.52;79.60;101654.88;5021693;28;1917;-74
2023/09/09 11:11:57;;;;;;;;;;;;;;;24.57;76.63;101655.91;5030477;28;1332;-75
2023/09/09 11:14:28;;;;;;;;;;;;;;;24.62;78.86;101660.63;5024620;28;1200;-74
2023/09/09 11:16:54;;;;;;;;;;;;;;;24.67;77.93;101655.56;5028493;28;1239;-73
2023/09/09 11:19:21;;;;;;;;;;;;;;;24.84;78.66;101662.16;5040444;28;1314;-74
2023/09/09 11:21:46;;;;;;;;;;;;;;;24.93;77.77;101648.69;5025004;28;1236;-74
2023/09/09 11:24:12;;;;;;;;;;;;;;;25.06;78.33;101651.41;5022660;28;1349;-74
2023/09/09 11:26:41;;;;;;;;;;;;;;;25.19;77.50;101646.16;5028458;28;1195;-74
2023/09/09 11:29:07;;;;;;;;;;;;;;;25.21;75.72;101651.25;5030724;28;1960;-75
2023/09/09 11:31:32;;;;;;;;;;;;;;;25.33;72.98;101639.81;5034845;28;1318;-77
2023/09/09 11:33:58;;;;;;;;;;;;;;;25.38;73.00;101640.03;5029731;28;1265;-74
2023/09/09 11:36:23;;;;;;;;;;;;;;;25.43;66.53;101639.44;5040199;28;1329;-74
2023/09/09 11:38:48;;;;;;;;;;;;;;;25.51;70.37;101646.38;5067133;28;1304;-74
2023/09/09 11:41:18;;;;;;;;;;;;;;;25.62;72.73;101641.25;5039066;28;1084;-74
2023/09/09 11:43:43;;;;;;;;;;;;;;;25.74;73.01;101646.81;5028061;28;1169;-74
2023/09/09 11:46:08;;;;;;;;;;;;;;;25.77;70.30;101635.78;5036566;28;1146;-74
2023/09/09 11:48:33;;;;;;;;;;;;;;;25.85;71.27;101643.53;5037396;28;1091;-74
2023/09/09 11:50:59;;;;;;;;;;;;;;;25.92;68.39;101643.50;5031237;28;1963;-74
2023/09/09 11:53:25;;;;;;;;;;;;;;;26.03;71.74;101644.72;5034370;28;1394;-75
2023/09/09 11:55:53;;;;;;;;;;;;;;;26.08;69.56;101643.06;5032645;28;1074;-74
2023/09/09 11:58:19;;;;;;;;;;;;;;;26.08;71.00;101648.41;5036560;28;1074;-75
2023/09/09 12:00:44;;;;;;;;;;;;;;;26.07;70.61;101651.28;5029203;28;1087;-74
2023/09/09 12:03:09;;;;;;;;;;;;;;;26.03;65.23;101650.03;5032435;28;1522;-75
2023/09/09 12:05:35;;;;;;;;;;;;;;;26.07;67.39;101643.28;5027040;28;1300;-76
2023/09/09 12:08:01;;;;;;;;;;;;;;;26.18;69.46;101647.97;5033098;28;1554;-75
2023/09/09 12:10:29;;;;;;;;;;;;;;;26.15;65.42;101643.06;5031874;28;1890;-75
2023/09/09 12:12:54;;;;;;;;;;;;;;;26.20;68.85;101640.59;5027908;28;1219;-74
2023/09/09 12:15:20;;;;;;;;;;;;;;;26.32;67.16;101648.75;5028511;28;1094;-73
2023/09/09 12:17:45;;;;;;;;;;;;;;;26.28;63.16;101648.38;5031709;28;1374;-76
2023/09/09 12:20:11;;;;;;;;;;;;;;;26.26;65.27;101639.75;5030863;28;1173;-75
2023/09/09 12:22:40;;;;;;;;;;;;;;;26.22;67.03;101641.22;5032366;28;1102;-75
2023/09/09 12:25:06;;;;;;;;;;;;;;;26.30;65.44;101645.47;5028705;28;1187;-75
2023/09/09 12:27:58;;;;;;;;;;;;;;;26.34;65.59;101642.19;5030474;28;1225;-74
2023/09/09 12:30:34;;;;;;;;;;;;;;;26.38;66.16;101647.91;5040274;28;1906;-74
2023/09/09 12:33:28;;;;;;;;;;;;;;;26.47;67.30;101638.69;5025394;28;1146;-74
2023/09/09 12:35:54;;;;;;;;;;;;;;;26.59;67.40;101644.19;5023999;28;1371;-74
2023/09/09 12:38:20;;;;;;;;;;;;;;;26.73;66.93;101640.44;5047739;28;1231;-74